sensor_id;sensor_type;location;lat;lon;timestamp;P1;durP1;ratioP1;P2;durP2;ratioP2
49193;SDS011;35029;50.804;12.866;2024-03-17T00:01:04;6.38;;;4.50;;
49193;SDS011;35029;50.804;12.866;2024-03-17T00:03:30;7.82;;;4.35;;
49193;SDS011;35029;50.804;12.866;2024-03-17T00:05:59;7.18;;;4.40;;
49193;SDS011;35029;50.804;12.866;2024-03-17T00:08:26;8.88;;;4.72;;
49193;SDS011;35029;50.804;12.866;2024-03-17T00:10:56;5.70;;;4.07;;
49193;SDS011;35029;50.804;12.866;2024-03-17T00:13:22;11.10;;;4.18;;
49193;SDS011;35029;50.804;12.866;2024-03-17T00:15:48;7.88;;;3.97;;
49193;SDS011;35029;50.804;12.866;2024-03-17T00:18:15;6.50;;;4.18;;
49193;SDS011;35029;50.804;12.866;2024-03-17T00:20:41;6.53;;;3.72;;
49193;SDS011;35029;50.804;12.866;2024-03-17T00:23:06;5.97;;;3.80;;
49193;SDS011;35029;50.804;12.866;2024-03-17T00:25:33;8.55;;;4.00;;
49193;SDS011;35029;50.804;12.866;2024-03-17T00:27:59;5.53;;;3.47;;
49193;SDS011;35029;50.804;12.866;2024-03-17T00:30:25;6.72;;;3.60;;
49193;SDS011;35029;50.804;12.866;2024-03-17T00:32:51;4.97;;;3.10;;
49193;SDS011;35029;50.804;12.866;2024-03-17T00:35:17;5.63;;;3.03;;
49193;SDS011;35029;50.804;12.866;2024-03-17T00:37:49;5.38;;;3.03;;
49193;SDS011;35029;50.804;12.866;2024-03-17T00:40:16;8.68;;;3.85;;
49193;SDS011;35029;50.804;12.866;2024-03-17T00:42:43;7.28;;;3.63;;
49193;SDS011;35029;50.804;12.866;2024-03-17T00:45:10;7.50;;;3.95;;
49193;SDS011;35029;50.804;12.866;2024-03-17T00:47:36;6.60;;;3.38;;
49193;SDS011;35029;50.804;12.866;2024-03-17T00:50:02;8.35;;;3.55;;
49193;SDS011;35029;50.804;12.866;2024-03-17T00:52:29;5.30;;;3.55;;
49193;SDS011;35029;50.804;12.866;2024-03-17T00:54:55;5.93;;;3.75;;
49193;SDS011;35029;50.804;12.866;2024-03-17T00:57:21;6.78;;;3.58;;
49193;SDS011;35029;50.804;12.866;2024-03-17T00:59:46;7.18;;;3.70;;
49193;SDS011;35029;50.804;12.866;2024-03-17T01:02:12;9.02;;;3.42;;
49193;SDS011;35029;50.804;12.866;2024-03-17T01:04:41;3.92;;;3.10;;
49193;SDS011;35029;50.804;12.866;2024-03-17T01:07:08;5.88;;;3.15;;
49193;SDS011;35029;50.804;12.866;2024-03-17T01:09:34;6.45;;;3.15;;
49193;SDS011;35029;50.804;12.866;2024-03-17T01:12:00;8.20;;;3.22;;
49193;SDS011;35029;50.804;12.866;2024-03-17T01:14:27;8.77;;;3.80;;
49193;SDS011;35029;50.804;12.866;2024-03-17T01:16:53;7.63;;;3.75;;
49193;SDS011;35029;50.804;12.866;2024-03-17T01:19:19;9.27;;;3.85;;
49193;SDS011;35029;50.804;12.866;2024-03-17T01:21:45;6.43;;;3.42;;
49193;SDS011;35029;50.804;12.866;2024-03-17T01:24:11;5.88;;;3.20;;
49193;SDS011;35029;50.804;12.866;2024-03-17T01:26:36;6.75;;;3.40;;
49193;SDS011;35029;50.804;12.866;2024-03-17T01:29:02;6.35;;;3.42;;
49193;SDS011;35029;50.804;12.866;2024-03-17T01:31:28;4.25;;;2.75;;
49193;SDS011;35029;50.804;12.866;2024-03-17T01:33:53;4.63;;;2.92;;
49193;SDS011;35029;50.804;12.866;2024-03-17T01:36:19;6.07;;;3.40;;
49193;SDS011;35029;50.804;12.866;2024-03-17T01:38:44;8.13;;;3.78;;
49193;SDS011;35029;50.804;12.866;2024-03-17T01:41:10;5.20;;;3.08;;
49193;SDS011;35029;50.804;12.866;2024-03-17T01:43:35;7.20;;;2.95;;
49193;SDS011;35029;50.804;12.866;2024-03-17T01:46:01;5.30;;;3.20;;
49193;SDS011;35029;50.804;12.866;2024-03-17T01:48:29;7.88;;;2.67;;
49193;SDS011;35029;50.804;12.866;2024-03-17T01:50:55;5.50;;;3.03;;
49193;SDS011;35029;50.804;12.866;2024-03-17T01:53:21;4.32;;;2.70;;
49193;SDS011;35029;50.804;12.866;2024-03-17T01:55:52;9.55;;;2.88;;
49193;SDS011;35029;50.804;12.866;2024-03-17T01:58:22;4.80;;;2.35;;
49193;SDS011;35029;50.804;12.866;2024-03-17T02:00:50;5.55;;;2.40;;
49193;SDS011;35029;50.804;12.866;2024-03-17T02:03:17;5.28;;;2.70;;
49193;SDS011;35029;50.804;12.866;2024-03-17T02:05:43;4.88;;;2.63;;
49193;SDS011;35029;50.804;12.866;2024-03-17T02:08:09;6.00;;;3.05;;
49193;SDS011;35029;50.804;12.866;2024-03-17T02:10:36;6.95;;;2.67;;
49193;SDS011;35029;50.804;12.866;2024-03-17T02:13:02;8.02;;;2.67;;
49193;SDS011;35029;50.804;12.866;2024-03-17T02:15:29;4.47;;;2.55;;
49193;SDS011;35029;50.804;12.866;2024-03-17T02:17:56;7.40;;;2.50;;
49193;SDS011;35029;50.804;12.866;2024-03-17T02:20:21;5.10;;;2.55;;
49193;SDS011;35029;50.804;12.866;2024-03-17T02:23:07;6.43;;;2.28;;
49193;SDS011;35029;50.804;12.866;2024-03-17T02:25:32;4.10;;;2.50;;
49193;SDS011;35029;50.804;12.866;2024-03-17T02:27:58;5.38;;;2.80;;
49193;SDS011;35029;50.804;12.866;2024-03-17T02:30:24;5.28;;;2.42;;
49193;SDS011;35029;50.804;12.866;2024-03-17T02:32:53;3.83;;;2.15;;
49193;SDS011;35029;50.804;12.866;2024-03-17T02:35:20;3.20;;;2.33;;
49193;SDS011;35029;50.804;12.866;2024-03-17T02:37:50;4.88;;;2.53;;
49193;SDS011;35029;50.804;12.866;2024-03-17T02:40:16;4.65;;;2.30;;
49193;SDS011;35029;50.804;12.866;2024-03-17T02:42:43;8.60;;;2.90;;
49193;SDS011;35029;50.804;12.866;2024-03-17T02:45:10;4.55;;;2.30;;
49193;SDS011;35029;50.804;12.866;2024-03-17T02:47:39;6.60;;;2.72;;
49193;SDS011;35029;50.804;12.866;2024-03-17T02:50:05;3.92;;;2.40;;
49193;SDS011;35029;50.804;12.866;2024-03-17T02:52:31;4.25;;;2.30;;
49193;SDS011;35029;50.804;12.866;2024-03-17T02:54:57;4.13;;;2.58;;
49193;SDS011;35029;50.804;12.866;2024-03-17T02:57:23;4.72;;;2.00;;
49193;SDS011;35029;50.804;12.866;2024-03-17T02:59:50;6.15;;;2.28;;
49193;SDS011;35029;50.804;12.866;2024-03-17T03:02:17;6.85;;;2.75;;
49193;SDS011;35029;50.804;12.866;2024-03-17T03:04:42;7.10;;;2.60;;
49193;SDS011;35029;50.804;12.866;2024-03-17T03:07:08;4.25;;;2.33;;
49193;SDS011;35029;50.804;12.866;2024-03-17T03:09:34;6.47;;;2.92;;
49193;SDS011;35029;50.804;12.866;2024-03-17T03:12:00;4.22;;;2.42;;
49193;SDS011;35029;50.804;12.866;2024-03-17T03:14:27;9.07;;;2.58;;
49193;SDS011;35029;50.804;12.866;2024-03-17T03:16:53;6.53;;;2.85;;
49193;SDS011;35029;50.804;12.866;2024-03-17T03:19:19;5.45;;;2.90;;
49193;SDS011;35029;50.804;12.866;2024-03-17T03:21:45;5.05;;;2.40;;
49193;SDS011;35029;50.804;12.866;2024-03-17T03:24:11;7.85;;;2.58;;
49193;SDS011;35029;50.804;12.866;2024-03-17T03:26:39;3.42;;;1.90;;
49193;SDS011;35029;50.804;12.866;2024-03-17T03:29:04;5.35;;;2.40;;
49193;SDS011;35029;50.804;12.866;2024-03-17T03:31:31;5.28;;;2.20;;
49193;SDS011;35029;50.804;12.866;2024-03-17T03:33:57;3.85;;;2.55;;
49193;SDS011;35029;50.804;12.866;2024-03-17T03:36:26;3.55;;;2.35;;
49193;SDS011;35029;50.804;12.866;2024-03-17T03:38:53;5.88;;;2.88;;
49193;SDS011;35029;50.804;12.866;2024-03-17T03:41:18;6.75;;;3.08;;
49193;SDS011;35029;50.804;12.866;2024-03-17T03:43:44;5.60;;;2.55;;
49193;SDS011;35029;50.804;12.866;2024-03-17T03:46:11;7.35;;;2.75;;
49193;SDS011;35029;50.804;12.866;2024-03-17T03:48:37;7.00;;;2.75;;
49193;SDS011;35029;50.804;12.866;2024-03-17T03:51:06;5.38;;;2.50;;
49193;SDS011;35029;50.804;12.866;2024-03-17T03:53:35;5.88;;;2.25;;
49193;SDS011;35029;50.804;12.866;2024-03-17T03:56:06;6.75;;;2.70;;
49193;SDS011;35029;50.804;12.866;2024-03-17T03:58:35;7.22;;;2.50;;
49193;SDS011;35029;50.804;12.866;2024-03-17T04:01:05;4.60;;;2.40;;
49193;SDS011;35029;50.804;12.866;2024-03-17T04:03:34;6.65;;;2.45;;
49193;SDS011;35029;50.804;12.866;2024-03-17T04:06:07;6.30;;;2.25;;
49193;SDS011;35029;50.804;12.866;2024-03-17T04:08:36;5.05;;;2.70;;
49193;SDS011;35029;50.804;12.866;2024-03-17T04:11:02;7.47;;;2.97;;
49193;SDS011;35029;50.804;12.866;2024-03-17T04:13:29;10.50;;;3.28;;
49193;SDS011;35029;50.804;12.866;2024-03-17T04:15:58;9.43;;;3.08;;
49193;SDS011;35029;50.804;12.866;2024-03-17T04:18:27;9.27;;;2.80;;
49193;SDS011;35029;50.804;12.866;2024-03-17T04:20:56;7.45;;;2.45;;
49193;SDS011;35029;50.804;12.866;2024-03-17T04:23:28;6.18;;;2.55;;
49193;SDS011;35029;50.804;12.866;2024-03-17T04:25:54;6.97;;;3.25;;
49193;SDS011;35029;50.804;12.866;2024-03-17T04:28:19;6.18;;;2.70;;
49193;SDS011;35029;50.804;12.866;2024-03-17T04:30:45;5.28;;;2.55;;
49193;SDS011;35029;50.804;12.866;2024-03-17T04:33:11;5.05;;;2.42;;
49193;SDS011;35029;50.804;12.866;2024-03-17T04:35:38;7.47;;;2.70;;
49193;SDS011;35029;50.804;12.866;2024-03-17T04:38:04;6.60;;;2.53;;
49193;SDS011;35029;50.804;12.866;2024-03-17T04:40:31;4.75;;;2.58;;
49193;SDS011;35029;50.804;12.866;2024-03-17T04:43:00;4.25;;;2.42;;
49193;SDS011;35029;50.804;12.866;2024-03-17T04:45:26;6.80;;;2.78;;
49193;SDS011;35029;50.804;12.866;2024-03-17T04:47:52;4.43;;;2.63;;
49193;SDS011;35029;50.804;12.866;2024-03-17T04:50:18;5.63;;;2.67;;
49193;SDS011;35029;50.804;12.866;2024-03-17T04:52:44;4.32;;;2.30;;
49193;SDS011;35029;50.804;12.866;2024-03-17T04:55:09;8.20;;;2.70;;
49193;SDS011;35029;50.804;12.866;2024-03-17T04:57:35;5.97;;;2.60;;
49193;SDS011;35029;50.804;12.866;2024-03-17T05:00:01;7.50;;;2.95;;
49193;SDS011;35029;50.804;12.866;2024-03-17T05:02:28;4.45;;;2.75;;
49193;SDS011;35029;50.804;12.866;2024-03-17T05:04:54;3.63;;;2.75;;
49193;SDS011;35029;50.804;12.866;2024-03-17T05:07:19;4.18;;;2.42;;
49193;SDS011;35029;50.804;12.866;2024-03-17T05:09:45;4.90;;;2.80;;
49193;SDS011;35029;50.804;12.866;2024-03-17T05:12:10;5.10;;;2.72;;
49193;SDS011;35029;50.804;12.866;2024-03-17T05:14:36;5.47;;;2.70;;
49193;SDS011;35029;50.804;12.866;2024-03-17T05:17:02;4.65;;;2.88;;
49193;SDS011;35029;50.804;12.866;2024-03-17T05:19:27;5.68;;;2.40;;
49193;SDS011;35029;50.804;12.866;2024-03-17T05:21:53;7.28;;;2.92;;
49193;SDS011;35029;50.804;12.866;2024-03-17T05:24:19;11.00;;;2.70;;
49193;SDS011;35029;50.804;12.866;2024-03-17T05:26:44;6.68;;;2.80;;
49193;SDS011;35029;50.804;12.866;2024-03-17T05:29:11;5.82;;;3.03;;
49193;SDS011;35029;50.804;12.866;2024-03-17T05:31:36;4.05;;;2.60;;
49193;SDS011;35029;50.804;12.866;2024-03-17T05:34:05;5.38;;;2.50;;
49193;SDS011;35029;50.804;12.866;2024-03-17T05:36:34;7.60;;;2.65;;
49193;SDS011;35029;50.804;12.866;2024-03-17T05:39:00;5.72;;;2.38;;
49193;SDS011;35029;50.804;12.866;2024-03-17T05:41:25;7.28;;;2.80;;
49193;SDS011;35029;50.804;12.866;2024-03-17T05:43:51;5.50;;;2.78;;
49193;SDS011;35029;50.804;12.866;2024-03-17T05:46:17;5.32;;;2.88;;
49193;SDS011;35029;50.804;12.866;2024-03-17T05:48:43;8.27;;;3.08;;
49193;SDS011;35029;50.804;12.866;2024-03-17T05:51:09;5.32;;;3.05;;
49193;SDS011;35029;50.804;12.866;2024-03-17T05:53:36;7.47;;;3.05;;
49193;SDS011;35029;50.804;12.866;2024-03-17T05:56:04;5.32;;;3.35;;
49193;SDS011;35029;50.804;12.866;2024-03-17T05:58:30;6.70;;;2.75;;
49193;SDS011;35029;50.804;12.866;2024-03-17T06:00:56;4.63;;;2.60;;
49193;SDS011;35029;50.804;12.866;2024-03-17T06:03:21;7.32;;;2.70;;
49193;SDS011;35029;50.804;12.866;2024-03-17T06:05:47;6.47;;;3.30;;
49193;SDS011;35029;50.804;12.866;2024-03-17T06:08:13;10.00;;;3.65;;
49193;SDS011;35029;50.804;12.866;2024-03-17T06:10:46;5.82;;;2.67;;
49193;SDS011;35029;50.804;12.866;2024-03-17T06:13:13;3.88;;;2.90;;
49193;SDS011;35029;50.804;12.866;2024-03-17T06:15:42;5.78;;;3.05;;
49193;SDS011;35029;50.804;12.866;2024-03-17T06:18:12;7.47;;;3.13;;
49193;SDS011;35029;50.804;12.866;2024-03-17T06:20:42;6.15;;;3.65;;
49193;SDS011;35029;50.804;12.866;2024-03-17T06:23:10;7.23;;;3.17;;
49193;SDS011;35029;50.804;12.866;2024-03-17T06:28:05;4.82;;;3.22;;
49193;SDS011;35029;50.804;12.866;2024-03-17T06:30:31;10.50;;;3.55;;
49193;SDS011;35029;50.804;12.866;2024-03-17T06:32:58;4.70;;;3.00;;
49193;SDS011;35029;50.804;12.866;2024-03-17T06:35:23;9.57;;;2.83;;
49193;SDS011;35029;50.804;12.866;2024-03-17T06:37:51;4.50;;;2.95;;
49193;SDS011;35029;50.804;12.866;2024-03-17T06:40:18;8.65;;;2.85;;
49193;SDS011;35029;50.804;12.866;2024-03-17T06:42:44;8.40;;;2.80;;
49193;SDS011;35029;50.804;12.866;2024-03-17T06:45:10;7.78;;;2.67;;
49193;SDS011;35029;50.804;12.866;2024-03-17T06:47:36;5.25;;;2.95;;
49193;SDS011;35029;50.804;12.866;2024-03-17T06:50:06;10.52;;;3.55;;
49193;SDS011;35029;50.804;12.866;2024-03-17T06:52:35;5.53;;;2.58;;
49193;SDS011;35029;50.804;12.866;2024-03-17T06:55:01;8.13;;;3.17;;
49193;SDS011;35029;50.804;12.866;2024-03-17T06:57:26;5.30;;;2.88;;
49193;SDS011;35029;50.804;12.866;2024-03-17T06:59:52;8.50;;;3.47;;
49193;SDS011;35029;50.804;12.866;2024-03-17T07:02:18;6.18;;;2.75;;
49193;SDS011;35029;50.804;12.866;2024-03-17T07:04:45;7.35;;;3.10;;
49193;SDS011;35029;50.804;12.866;2024-03-17T07:07:12;8.57;;;3.17;;
49193;SDS011;35029;50.804;12.866;2024-03-17T07:09:38;6.05;;;2.97;;
49193;SDS011;35029;50.804;12.866;2024-03-17T07:12:05;8.80;;;3.15;;
49193;SDS011;35029;50.804;12.866;2024-03-17T07:14:35;7.13;;;2.75;;
49193;SDS011;35029;50.804;12.866;2024-03-17T07:17:02;7.15;;;3.63;;
49193;SDS011;35029;50.804;12.866;2024-03-17T07:19:29;6.22;;;2.90;;
49193;SDS011;35029;50.804;12.866;2024-03-17T07:21:56;5.68;;;3.25;;
49193;SDS011;35029;50.804;12.866;2024-03-17T07:24:22;6.38;;;2.72;;
49193;SDS011;35029;50.804;12.866;2024-03-17T07:26:48;6.97;;;3.50;;
49193;SDS011;35029;50.804;12.866;2024-03-17T07:29:14;7.95;;;3.47;;
49193;SDS011;35029;50.804;12.866;2024-03-17T07:31:41;8.85;;;3.97;;
49193;SDS011;35029;50.804;12.866;2024-03-17T07:34:07;6.78;;;3.15;;
49193;SDS011;35029;50.804;12.866;2024-03-17T07:36:32;8.50;;;3.40;;
49193;SDS011;35029;50.804;12.866;2024-03-17T07:38:58;8.05;;;3.28;;
49193;SDS011;35029;50.804;12.866;2024-03-17T07:41:24;8.10;;;3.25;;
49193;SDS011;35029;50.804;12.866;2024-03-17T07:43:50;8.88;;;3.38;;
49193;SDS011;35029;50.804;12.866;2024-03-17T07:46:15;11.75;;;3.35;;
49193;SDS011;35029;50.804;12.866;2024-03-17T07:48:41;6.05;;;2.80;;
49193;SDS011;35029;50.804;12.866;2024-03-17T07:51:13;7.28;;;3.47;;
49193;SDS011;35029;50.804;12.866;2024-03-17T07:53:54;6.13;;;2.88;;
49193;SDS011;35029;50.804;12.866;2024-03-17T07:56:20;4.05;;;2.70;;
49193;SDS011;35029;50.804;12.866;2024-03-17T07:58:45;9.95;;;3.35;;
49193;SDS011;35029;50.804;12.866;2024-03-17T08:01:14;11.60;;;4.35;;
49193;SDS011;35029;50.804;12.866;2024-03-17T08:03:42;9.88;;;3.15;;
49193;SDS011;35029;50.804;12.866;2024-03-17T08:06:10;5.72;;;3.33;;
49193;SDS011;35029;50.804;12.866;2024-03-17T08:08:36;12.48;;;3.45;;
49193;SDS011;35029;50.804;12.866;2024-03-17T08:11:02;7.32;;;3.15;;
49193;SDS011;35029;50.804;12.866;2024-03-17T08:13:31;10.10;;;3.85;;
49193;SDS011;35029;50.804;12.866;2024-03-17T08:16:07;8.57;;;3.75;;
49193;SDS011;35029;50.804;12.866;2024-03-17T08:18:36;6.82;;;3.47;;
49193;SDS011;35029;50.804;12.866;2024-03-17T08:21:02;10.77;;;3.42;;
49193;SDS011;35029;50.804;12.866;2024-03-17T08:23:29;10.48;;;3.40;;
49193;SDS011;35029;50.804;12.866;2024-03-17T08:25:56;7.35;;;3.67;;
49193;SDS011;35029;50.804;12.866;2024-03-17T08:28:23;10.20;;;3.60;;
49193;SDS011;35029;50.804;12.866;2024-03-17T08:30:53;14.48;;;3.47;;
49193;SDS011;35029;50.804;12.866;2024-03-17T08:33:20;6.00;;;3.38;;
49193;SDS011;35029;50.804;12.866;2024-03-17T08:36:00;10.55;;;3.28;;
49193;SDS011;35029;50.804;12.866;2024-03-17T08:38:29;12.30;;;3.85;;
49193;SDS011;35029;50.804;12.866;2024-03-17T08:40:56;7.78;;;3.75;;
49193;SDS011;35029;50.804;12.866;2024-03-17T08:43:23;7.78;;;3.65;;
49193;SDS011;35029;50.804;12.866;2024-03-17T08:45:56;12.85;;;3.70;;
49193;SDS011;35029;50.804;12.866;2024-03-17T08:48:25;10.05;;;4.10;;
49193;SDS011;35029;50.804;12.866;2024-03-17T08:50:52;6.65;;;3.17;;
49193;SDS011;35029;50.804;12.866;2024-03-17T08:53:19;11.85;;;4.20;;
49193;SDS011;35029;50.804;12.866;2024-03-17T08:55:45;7.72;;;3.65;;
49193;SDS011;35029;50.804;12.866;2024-03-17T08:58:11;7.78;;;3.30;;
49193;SDS011;35029;50.804;12.866;2024-03-17T09:00:36;10.18;;;3.60;;
49193;SDS011;35029;50.804;12.866;2024-03-17T09:03:04;9.55;;;3.50;;
49193;SDS011;35029;50.804;12.866;2024-03-17T09:05:34;13.20;;;4.15;;
49193;SDS011;35029;50.804;12.866;2024-03-17T09:08:00;8.90;;;3.30;;
49193;SDS011;35029;50.804;12.866;2024-03-17T09:10:26;7.15;;;3.50;;
49193;SDS011;35029;50.804;12.866;2024-03-17T09:12:51;9.15;;;3.58;;
49193;SDS011;35029;50.804;12.866;2024-03-17T09:15:17;13.20;;;3.67;;
49193;SDS011;35029;50.804;12.866;2024-03-17T09:17:42;7.57;;;3.17;;
49193;SDS011;35029;50.804;12.866;2024-03-17T09:20:10;8.23;;;3.50;;
49193;SDS011;35029;50.804;12.866;2024-03-17T09:22:37;7.53;;;3.13;;
49193;SDS011;35029;50.804;12.866;2024-03-17T09:25:07;6.32;;;3.45;;
49193;SDS011;35029;50.804;12.866;2024-03-17T09:27:33;7.80;;;3.33;;
49193;SDS011;35029;50.804;12.866;2024-03-17T09:29:59;8.40;;;3.55;;
49193;SDS011;35029;50.804;12.866;2024-03-17T09:32:25;5.18;;;3.17;;
49193;SDS011;35029;50.804;12.866;2024-03-17T09:34:51;5.25;;;2.90;;
49193;SDS011;35029;50.804;12.866;2024-03-17T09:37:16;9.20;;;3.40;;
49193;SDS011;35029;50.804;12.866;2024-03-17T09:39:42;12.38;;;3.90;;
49193;SDS011;35029;50.804;12.866;2024-03-17T09:42:17;10.00;;;3.08;;
49193;SDS011;35029;50.804;12.866;2024-03-17T09:44:46;12.68;;;3.08;;
49193;SDS011;35029;50.804;12.866;2024-03-17T09:47:20;7.85;;;2.50;;
49193;SDS011;35029;50.804;12.866;2024-03-17T09:49:50;7.93;;;3.28;;
49193;SDS011;35029;50.804;12.866;2024-03-17T09:52:25;7.70;;;3.25;;
49193;SDS011;35029;50.804;12.866;2024-03-17T09:54:59;6.20;;;3.00;;
49193;SDS011;35029;50.804;12.866;2024-03-17T09:57:27;6.07;;;2.70;;
49193;SDS011;35029;50.804;12.866;2024-03-17T09:59:54;6.65;;;3.15;;
49193;SDS011;35029;50.804;12.866;2024-03-17T10:02:22;8.02;;;2.92;;
49193;SDS011;35029;50.804;12.866;2024-03-17T10:04:48;6.85;;;3.28;;
49193;SDS011;35029;50.804;12.866;2024-03-17T10:07:14;6.57;;;2.90;;
49193;SDS011;35029;50.804;12.866;2024-03-17T10:09:43;4.68;;;2.90;;
49193;SDS011;35029;50.804;12.866;2024-03-17T10:12:24;10.75;;;3.60;;
49193;SDS011;35029;50.804;12.866;2024-03-17T10:15:00;7.85;;;3.70;;
49193;SDS011;35029;50.804;12.866;2024-03-17T10:17:33;8.82;;;4.55;;
49193;SDS011;35029;50.804;12.866;2024-03-17T10:23:26;8.70;;;3.63;;
49193;SDS011;35029;50.804;12.866;2024-03-17T10:25:29;5.97;;;3.20;;
49193;SDS011;35029;50.804;12.866;2024-03-17T10:27:56;5.88;;;3.15;;
49193;SDS011;35029;50.804;12.866;2024-03-17T10:30:22;6.13;;;3.00;;
49193;SDS011;35029;50.804;12.866;2024-03-17T10:32:59;5.38;;;2.85;;
49193;SDS011;35029;50.804;12.866;2024-03-17T10:38:04;4.22;;;3.28;;
49193;SDS011;35029;50.804;12.866;2024-03-17T10:40:31;5.45;;;2.80;;
49193;SDS011;35029;50.804;12.866;2024-03-17T10:43:04;5.35;;;3.17;;
49193;SDS011;35029;50.804;12.866;2024-03-17T10:45:31;5.28;;;2.90;;
49193;SDS011;35029;50.804;12.866;2024-03-17T10:48:03;10.38;;;3.60;;
49193;SDS011;35029;50.804;12.866;2024-03-17T10:50:35;4.82;;;2.67;;
49193;SDS011;35029;50.804;12.866;2024-03-17T10:53:06;6.32;;;2.92;;
49193;SDS011;35029;50.804;12.866;2024-03-17T10:55:44;7.43;;;2.80;;
49193;SDS011;35029;50.804;12.866;2024-03-17T10:58:23;5.90;;;2.40;;
49193;SDS011;35029;50.804;12.866;2024-03-17T11:00:58;3.47;;;2.28;;
49193;SDS011;35029;50.804;12.866;2024-03-17T11:03:26;5.55;;;3.15;;
49193;SDS011;35029;50.804;12.866;2024-03-17T11:05:52;5.53;;;2.65;;
49193;SDS011;35029;50.804;12.866;2024-03-17T11:08:18;5.10;;;3.08;;
49193;SDS011;35029;50.804;12.866;2024-03-17T11:10:51;4.68;;;2.80;;
49193;SDS011;35029;50.804;12.866;2024-03-17T11:13:24;5.05;;;2.63;;
49193;SDS011;35029;50.804;12.866;2024-03-17T11:15:52;7.22;;;3.60;;
49193;SDS011;35029;50.804;12.866;2024-03-17T11:21:45;7.50;;;3.58;;
49193;SDS011;35029;50.804;12.866;2024-03-17T11:23:54;4.97;;;2.92;;
49193;SDS011;35029;50.804;12.866;2024-03-17T11:26:28;9.70;;;3.17;;
49193;SDS011;35029;50.804;12.866;2024-03-17T11:28:55;5.43;;;3.17;;
49193;SDS011;35029;50.804;12.866;2024-03-17T11:33:57;10.88;;;3.20;;
49193;SDS011;35029;50.804;12.866;2024-03-17T11:41:39;4.15;;;2.50;;
49193;SDS011;35029;50.804;12.866;2024-03-17T11:49:34;6.22;;;3.28;;
49193;SDS011;35029;50.804;12.866;2024-03-17T11:54:30;6.35;;;3.28;;
49193;SDS011;35029;50.804;12.866;2024-03-17T11:57:03;10.60;;;3.80;;
49193;SDS011;35029;50.804;12.866;2024-03-17T11:59:33;7.38;;;3.60;;
49193;SDS011;35029;50.804;12.866;2024-03-17T12:01:59;4.78;;;3.72;;
49193;SDS011;35029;50.804;12.866;2024-03-17T12:04:26;4.70;;;3.05;;
49193;SDS011;35029;50.804;12.866;2024-03-17T12:06:52;6.65;;;3.47;;
49193;SDS011;35029;50.804;12.866;2024-03-17T12:09:22;4.22;;;3.00;;
49193;SDS011;35029;50.804;12.866;2024-03-17T12:14:31;7.57;;;2.95;;
49193;SDS011;35029;50.804;12.866;2024-03-17T12:19:27;6.03;;;3.55;;
49193;SDS011;35029;50.804;12.866;2024-03-17T12:21:54;8.38;;;4.68;;
49193;SDS011;35029;50.804;12.866;2024-03-17T12:24:22;5.03;;;3.10;;
49193;SDS011;35029;50.804;12.866;2024-03-17T12:26:49;5.38;;;3.20;;
49193;SDS011;35029;50.804;12.866;2024-03-17T12:29:30;6.03;;;3.05;;
49193;SDS011;35029;50.804;12.866;2024-03-17T12:34:43;6.97;;;3.28;;
49193;SDS011;35029;50.804;12.866;2024-03-17T12:37:13;5.70;;;3.00;;
49193;SDS011;35029;50.804;12.866;2024-03-17T12:39:43;5.57;;;3.08;;
49193;SDS011;35029;50.804;12.866;2024-03-17T12:42:12;6.93;;;3.40;;
49193;SDS011;35029;50.804;12.866;2024-03-17T12:44:40;5.05;;;3.33;;
49193;SDS011;35029;50.804;12.866;2024-03-17T12:47:19;8.05;;;3.42;;
49193;SDS011;35029;50.804;12.866;2024-03-17T12:49:46;6.40;;;3.00;;
49193;SDS011;35029;50.804;12.866;2024-03-17T12:57:49;9.48;;;3.75;;
49193;SDS011;35029;50.804;12.866;2024-03-17T13:00:36;5.75;;;3.85;;
49193;SDS011;35029;50.804;12.866;2024-03-17T13:03:06;7.47;;;3.42;;
49193;SDS011;35029;50.804;12.866;2024-03-17T13:05:35;5.90;;;3.20;;
49193;SDS011;35029;50.804;12.866;2024-03-17T13:08:02;5.93;;;3.00;;
49193;SDS011;35029;50.804;12.866;2024-03-17T13:10:28;7.55;;;3.67;;
49193;SDS011;35029;50.804;12.866;2024-03-17T13:13:04;5.07;;;2.97;;
49193;SDS011;35029;50.804;12.866;2024-03-17T13:15:33;5.40;;;2.88;;
49193;SDS011;35029;50.804;12.866;2024-03-17T13:18:02;5.15;;;3.00;;
49193;SDS011;35029;50.804;12.866;2024-03-17T13:20:29;7.93;;;3.53;;
49193;SDS011;35029;50.804;12.866;2024-03-17T13:22:55;5.43;;;3.08;;
49193;SDS011;35029;50.804;12.866;2024-03-17T13:25:23;9.10;;;3.75;;
49193;SDS011;35029;50.804;12.866;2024-03-17T13:27:53;5.73;;;3.33;;
49193;SDS011;35029;50.804;12.866;2024-03-17T13:30:19;4.85;;;2.88;;
49193;SDS011;35029;50.804;12.866;2024-03-17T13:32:47;5.30;;;2.72;;
49193;SDS011;35029;50.804;12.866;2024-03-17T13:35:16;6.60;;;3.13;;
49193;SDS011;35029;50.804;12.866;2024-03-17T13:37:46;8.93;;;3.30;;
49193;SDS011;35029;50.804;12.866;2024-03-17T13:40:15;5.03;;;2.55;;
49193;SDS011;35029;50.804;12.866;2024-03-17T13:42:47;8.02;;;3.28;;
49193;SDS011;35029;50.804;12.866;2024-03-17T13:45:18;5.65;;;3.20;;
49193;SDS011;35029;50.804;12.866;2024-03-17T13:47:53;6.35;;;2.78;;
49193;SDS011;35029;50.804;12.866;2024-03-17T13:50:21;4.30;;;2.63;;
49193;SDS011;35029;50.804;12.866;2024-03-17T13:52:47;4.00;;;2.58;;
49193;SDS011;35029;50.804;12.866;2024-03-17T13:55:17;3.65;;;2.60;;
49193;SDS011;35029;50.804;12.866;2024-03-17T13:57:45;5.20;;;3.08;;
49193;SDS011;35029;50.804;12.866;2024-03-17T14:00:12;5.70;;;3.50;;
49193;SDS011;35029;50.804;12.866;2024-03-17T14:02:45;6.85;;;3.60;;
49193;SDS011;35029;50.804;12.866;2024-03-17T14:05:12;7.68;;;3.08;;
49193;SDS011;35029;50.804;12.866;2024-03-17T14:07:40;6.07;;;2.72;;
49193;SDS011;35029;50.804;12.866;2024-03-17T14:10:05;6.82;;;2.78;;
49193;SDS011;35029;50.804;12.866;2024-03-17T14:12:33;3.88;;;2.63;;
49193;SDS011;35029;50.804;12.866;2024-03-17T14:14:59;4.45;;;2.78;;
49193;SDS011;35029;50.804;12.866;2024-03-17T14:17:25;6.10;;;2.97;;
49193;SDS011;35029;50.804;12.866;2024-03-17T14:19:50;5.65;;;3.30;;
49193;SDS011;35029;50.804;12.866;2024-03-17T14:22:16;5.07;;;4.05;;
49193;SDS011;35029;50.804;12.866;2024-03-17T14:24:41;3.42;;;2.63;;
49193;SDS011;35029;50.804;12.866;2024-03-17T14:27:07;3.50;;;2.42;;
49193;SDS011;35029;50.804;12.866;2024-03-17T14:29:37;4.43;;;2.63;;
49193;SDS011;35029;50.804;12.866;2024-03-17T14:32:03;5.65;;;2.80;;
49193;SDS011;35029;50.804;12.866;2024-03-17T14:34:28;6.15;;;2.88;;
49193;SDS011;35029;50.804;12.866;2024-03-17T14:37:00;4.75;;;3.25;;
49193;SDS011;35029;50.804;12.866;2024-03-17T14:39:28;4.55;;;2.75;;
49193;SDS011;35029;50.804;12.866;2024-03-17T14:41:55;3.75;;;2.70;;
49193;SDS011;35029;50.804;12.866;2024-03-17T14:44:21;6.03;;;3.05;;
49193;SDS011;35029;50.804;12.866;2024-03-17T14:46:47;5.03;;;3.30;;
49193;SDS011;35029;50.804;12.866;2024-03-17T14:49:16;3.55;;;2.53;;
49193;SDS011;35029;50.804;12.866;2024-03-17T14:51:42;3.72;;;2.60;;
49193;SDS011;35029;50.804;12.866;2024-03-17T14:54:08;8.88;;;2.47;;
49193;SDS011;35029;50.804;12.866;2024-03-17T14:56:35;6.55;;;2.95;;
49193;SDS011;35029;50.804;12.866;2024-03-17T14:59:01;5.50;;;2.92;;
49193;SDS011;35029;50.804;12.866;2024-03-17T15:01:29;5.80;;;3.35;;
49193;SDS011;35029;50.804;12.866;2024-03-17T15:03:55;5.97;;;2.65;;
49193;SDS011;35029;50.804;12.866;2024-03-17T15:06:21;4.05;;;2.80;;
49193;SDS011;35029;50.804;12.866;2024-03-17T15:08:48;4.00;;;2.60;;
49193;SDS011;35029;50.804;12.866;2024-03-17T15:11:13;5.57;;;3.10;;
49193;SDS011;35029;50.804;12.866;2024-03-17T15:13:41;4.38;;;2.38;;
49193;SDS011;35029;50.804;12.866;2024-03-17T15:16:08;4.00;;;2.53;;